Time;durP1;ratioP1;P1;durP2;ratioP2;P2;SDS_P1;SDS_P2;PMS_P1;PMS_P2;Temp;Humidity;BMP_temperature;BMP_pressure;BME280_temperature;BME280_humidity;BME280_pressure;Samples;Min_cycle;Max_cycle;Signal;HPM_P1;HPM_P2
2021/03/11 00:01:58;;;;;;;43.33;27.70;;;3.40;99.90;;;2.06;100.00;100128.72;5007986;27;100948;-62
2021/03/11 00:04:26;;;;;;;42.27;28.90;;;3.40;99.90;;;2.09;100.00;100121.44;5028024;27;101050;-61
2021/03/11 00:06:52;;;;;;;42.37;26.27;;;4.40;99.90;;;2.10;100.00;100117.00;5028799;27;100110;-61
2021/03/11 00:09:18;;;;;;;39.73;28.33;;;3.30;99.90;;;2.06;100.00;100118.16;5028364;27;100107;-62
2021/03/11 00:11:45;;;;;;;41.17;26.90;;;4.60;99.90;;;2.15;100.00;100117.50;5028713;27;100431;-61
2021/03/11 00:14:12;;;;;;;37.83;26.03;;;3.50;99.90;;;2.17;100.00;100116.44;5028823;27;100747;-62
2021/03/11 00:16:38;;;;;;;41.53;28.07;;;3.40;99.90;;;2.16;100.00;100114.75;5028492;27;100254;-61
2021/03/11 00:19:05;;;;;;;38.13;28.93;;;3.70;99.90;;;2.17;100.00;100110.31;5029495;27;100123;-62
2021/03/11 00:21:32;;;;;;;42.30;28.37;;;3.50;99.90;;;2.22;100.00;100118.78;5027870;27;100887;-62
2021/03/11 00:23:58;;;;;;;41.30;26.13;;;3.60;99.90;;;2.24;100.00;100102.78;5027970;27;100750;-62
2021/03/11 00:26:25;;;;;;;44.23;28.70;;;3.70;99.90;;;2.17;100.00;100097.97;5028676;27;100144;-62
2021/03/11 00:28:51;;;;;;;41.10;27.07;;;3.50;99.90;;;2.28;100.00;100088.44;5029130;27;100036;-62
2021/03/11 00:31:18;;;;;;;39.07;30.47;;;3.70;99.90;;;2.31;100.00;100083.78;5033642;27;101209;-60
2021/03/11 00:33:44;;;;;;;41.07;27.07;;;4.70;99.90;;;2.34;100.00;100078.28;5028492;27;101559;-61
2021/03/11 00:36:11;;;;;;;42.30;29.80;;;3.70;99.90;;;2.36;100.00;100083.44;5028521;27;100041;-62
2021/03/11 00:38:38;;;;;;;35.23;24.40;;;3.70;99.90;;;2.45;100.00;100078.34;5029312;27;100046;-62
2021/03/11 00:41:04;;;;;;;43.07;29.47;;;3.80;99.90;;;2.50;100.00;100078.00;5028224;27;101026;-62
2021/03/11 00:43:31;;;;;;;42.13;28.47;;;4.00;99.90;;;2.50;100.00;100070.91;5030835;27;100679;-62
2021/03/11 00:45:57;;;;;;;37.20;25.83;;;3.90;99.90;;;2.46;100.00;100063.34;5029466;27;100154;-62
2021/03/11 00:48:24;;;;;;;38.50;26.00;;;4.20;99.90;;;2.47;100.00;100063.22;5027870;27;100489;-62
2021/03/11 00:50:50;;;;;;;38.27;26.70;;;4.10;99.90;;;2.47;100.00;100052.66;5027283;27;100724;-63
2021/03/11 00:53:17;;;;;;;41.63;28.57;;;4.10;99.90;;;2.48;100.00;100041.13;5027675;27;100867;-62
2021/03/11 00:55:44;;;;;;;47.07;29.97;;;4.00;99.90;;;2.54;100.00;100039.84;5009151;27;100161;-62
2021/03/11 00:58:11;;;;;;;36.53;25.93;;;4.00;99.90;;;2.47;100.00;100028.88;5009431;27;100164;-63
2021/03/11 01:00:39;;;;;;;42.93;29.70;;;4.10;99.90;;;2.55;100.00;100014.28;5008515;27;102493;-62
2021/03/11 01:03:11;;;;;;;37.63;26.60;;;4.10;99.90;;;2.48;100.00;100006.78;5027834;27;100590;-61
2021/03/11 01:05:44;;;;;;;38.50;27.93;;;4.20;99.90;;;2.54;100.00;100005.50;5008405;27;100218;-60
2021/03/11 01:08:19;;;;;;;41.17;27.73;;;3.90;99.90;;;2.58;100.00;99996.41;4989638;27;100213;-63
2021/03/11 01:10:46;;;;;;;41.00;27.80;;;4.10;99.90;;;2.60;100.00;99991.03;5007265;27;101417;-61
2021/03/11 01:13:13;;;;;;;42.57;28.30;;;4.10;99.90;;;2.56;100.00;99981.63;5007443;27;100455;-63
2021/03/11 01:15:40;;;;;;;42.73;28.60;;;4.20;99.90;;;2.55;100.00;99974.66;5008101;27;100057;-63
2021/03/11 01:18:09;;;;;;;41.27;27.47;;;4.20;99.90;;;2.54;100.00;99971.19;5008285;27;100165;-60
2021/03/11 01:20:36;;;;;;;41.27;28.33;;;4.40;99.90;;;2.57;100.00;99970.13;5007562;27;100814;-63
2021/03/11 01:23:03;;;;;;;35.77;23.23;;;5.60;99.90;;;2.60;100.00;99951.41;5017554;27;101333;-62
2021/03/11 01:25:30;;;;;;;38.33;27.67;;;3.90;99.90;;;2.67;100.00;99949.97;5028205;27;100110;-63
2021/03/11 01:27:57;;;;;;;35.53;22.13;;;4.10;99.90;;;2.60;100.00;99946.94;5028386;27;100072;-62
2021/03/11 01:30:24;;;;;;;35.10;22.83;;;5.20;99.90;;;2.60;100.00;99925.78;5027225;27;101031;-63
2021/03/11 01:32:51;;;;;;;36.43;25.20;;;4.30;99.90;;;2.58;100.00;99921.63;5008493;27;101624;-62
2021/03/11 01:35:17;;;;;;;42.43;28.10;;;4.10;99.90;;;2.59;100.00;99916.22;5027573;27;100209;-64
2021/03/11 01:37:44;;;;;;;41.17;27.80;;;4.10;99.90;;;2.53;100.00;99921.94;5027561;27;100460;-63
2021/03/11 01:40:11;;;;;;;39.87;27.17;;;4.40;99.90;;;2.60;100.00;99914.41;5026944;27;100740;-62
2021/03/11 01:42:37;;;;;;;38.87;26.90;;;4.10;99.90;;;2.66;100.00;99920.06;5027470;27;100330;-63
2021/03/11 01:45:10;;;;;;;43.70;27.97;;;4.00;99.90;;;2.60;100.00;99917.06;5027544;27;100008;-63
2021/03/11 01:47:36;;;;;;;40.60;27.40;;;4.20;99.90;;;2.59;100.00;99910.09;5027331;27;100248;-62
2021/03/11 01:50:04;;;;;;;38.87;27.17;;;4.20;99.90;;;2.58;100.00;99893.41;5027022;27;100780;-63
2021/03/11 01:52:32;;;;;;;37.87;23.80;;;4.10;99.90;;;2.58;100.00;99892.56;5026646;27;100383;-63
2021/03/11 01:54:58;;;;;;;40.60;27.73;;;5.10;99.90;;;2.60;100.00;99890.66;5027342;27;99969;-62
2021/03/11 01:57:25;;;;;;;38.77;25.40;;;4.10;99.90;;;2.59;100.00;99865.19;5027064;27;100321;-63
2021/03/11 01:59:52;;;;;;;38.57;26.20;;;4.30;99.90;;;2.65;100.00;99865.53;5026979;27;101332;-63
2021/03/11 02:02:19;;;;;;;38.87;27.10;;;4.20;99.90;;;2.67;100.00;99865.44;5026176;27;100716;-62
2021/03/11 02:04:46;;;;;;;35.23;23.27;;;4.20;99.90;;;2.68;100.00;99862.69;5027351;27;100006;-62
2021/03/11 02:07:13;;;;;;;39.13;25.07;;;4.30;99.90;;;2.71;100.00;99857.16;5027527;27;100078;-61
2021/03/11 02:09:39;;;;;;;39.00;26.47;;;4.30;99.90;;;2.65;100.00;99851.50;5026861;27;101027;-63
2021/03/11 02:12:16;;;;;;;37.87;25.50;;;4.30;99.90;;;2.64;100.00;99841.88;5026220;27;100521;-62
2021/03/11 02:14:54;;;;;;;40.17;26.60;;;4.40;99.90;;;2.66;100.00;99837.34;5027727;27;100188;-63
2021/03/11 02:17:25;;;;;;;38.30;26.07;;;4.30;99.90;;;2.67;100.00;99831.09;5027123;27;99954;-62
2021/03/11 02:20:22;;;;;;;39.87;25.70;;;5.50;99.90;;;2.65;100.00;99820.66;5027038;27;101017;-62
2021/03/11 02:23:39;;;;;;;36.90;24.67;;;4.20;99.90;;;2.71;100.00;99822.81;5027044;27;100178;-63
2021/03/11 02:26:21;;;;;;;36.23;26.23;;;4.30;99.90;;;2.75;100.00;99811.03;4991635;27;100338;-62
2021/03/11 02:29:06;;;;;;;39.47;25.70;;;4.30;99.90;;;2.73;100.00;99812.09;5030558;27;100022;-62
2021/03/11 02:31:36;;;;;;;37.20;25.27;;;4.30;99.90;;;2.75;100.00;99800.47;5009065;27;101820;-63
2021/03/11 02:34:08;;;;;;;35.63;25.03;;;4.40;99.90;;;2.80;100.00;99797.47;5009802;27;100324;-62
2021/03/11 02:36:35;;;;;;;37.47;25.87;;;4.40;99.90;;;2.78;100.00;99807.31;5009661;27;100151;-62
2021/03/11 02:39:05;;;;;;;38.10;25.27;;;4.50;99.90;;;2.76;100.00;99802.16;5010550;27;100218;-61
2021/03/11 02:41:32;;;;;;;35.30;23.83;;;4.40;99.90;;;2.82;100.00;99782.34;5017149;27;100823;-63
2021/03/11 02:44:00;;;;;;;35.50;24.20;;;4.50;99.90;;;2.82;100.00;99775.25;5029701;27;101053;-62
2021/03/11 02:46:28;;;;;;;36.90;24.97;;;4.40;99.90;;;2.78;100.00;99776.44;5030671;27;100386;-63
2021/03/11 02:48:56;;;;;;;36.23;25.50;;;5.70;99.90;;;2.81;100.00;99770.94;5030060;27;100035;-62
2021/03/11 02:51:23;;;;;;;38.70;24.40;;;5.50;99.90;;;2.84;100.00;99761.94;5030033;27;100803;-62
2021/03/11 02:53:50;;;;;;;36.77;23.83;;;4.50;99.90;;;2.89;100.00;99759.75;5030227;27;100538;-61
2021/03/11 02:56:17;;;;;;;37.50;26.33;;;5.20;99.90;;;2.92;100.00;99753.38;5029622;27;99942;-62
2021/03/11 02:58:46;;;;;;;34.97;24.27;;;4.50;99.90;;;2.89;100.00;99746.53;5030512;27;100064;-64
2021/03/11 03:01:17;;;;;;;33.77;23.40;;;4.70;99.90;;;2.94;100.00;99725.03;5029647;27;100558;-63
2021/03/11 03:03:46;;;;;;;33.60;22.50;;;5.90;99.90;;;2.95;100.00;99724.91;5029887;27;100560;-61
2021/03/11 03:06:13;;;;;;;35.00;24.73;;;4.60;99.90;;;2.97;100.00;99725.59;5029830;27;101782;-63
2021/03/11 03:08:42;;;;;;;33.63;23.20;;;4.60;99.90;;;2.95;100.00;99722.28;5030600;27;99962;-62
2021/03/11 03:11:10;;;;;;;34.17;27.93;;;4.70;99.90;;;3.04;100.00;99713.59;5029038;27;100587;-62
2021/03/11 03:13:37;;;;;;;34.30;23.17;;;4.70;99.90;;;3.04;100.00;99712.75;5029661;27;101280;-62
2021/03/11 03:16:07;;;;;;;30.67;20.73;;;4.60;99.90;;;3.10;100.00;99699.03;5029386;27;100125;-62
2021/03/11 03:18:35;;;;;;;32.17;23.30;;;4.70;99.90;;;3.10;100.00;99701.66;5028857;27;100039;-62
2021/03/11 03:21:11;;;;;;;34.53;23.53;;;4.70;99.90;;;3.10;100.00;99685.81;5029169;27;101015;-62
2021/03/11 03:23:40;;;;;;;35.37;23.03;;;4.80;99.90;;;3.10;100.00;99691.94;5029523;27;100649;-63
2021/03/11 03:26:07;;;;;;;34.67;22.67;;;4.70;99.90;;;3.15;100.00;99687.13;5030365;27;99987;-62
2021/03/11 03:28:34;;;;;;;34.47;21.00;;;5.40;99.90;;;3.17;100.00;99684.34;5030516;27;100157;-62
2021/03/11 03:31:01;;;;;;;35.03;24.33;;;4.80;99.90;;;3.17;100.00;99681.72;5028842;27;101431;-61
2021/03/11 03:33:28;;;;;;;35.70;23.73;;;4.80;99.90;;;3.16;100.00;99675.59;5029456;27;101031;-61
2021/03/11 03:35:57;;;;;;;33.93;22.90;;;4.80;99.90;;;3.16;100.00;99675.59;5029719;27;100370;-62
2021/03/11 03:38:24;;;;;;;32.33;22.33;;;4.90;99.90;;;3.20;100.00;99681.47;5029865;27;100267;-62
2021/03/11 03:40:51;;;;;;;34.03;23.60;;;5.00;99.90;;;3.20;100.00;99677.03;5029267;27;100857;-62
2021/03/11 03:43:22;;;;;;;34.13;23.80;;;4.90;99.90;;;3.21;100.00;99677.88;5029142;27;100539;-62
2021/03/11 03:45:55;;;;;;;35.00;23.27;;;5.10;99.90;;;3.23;100.00;99668.81;5029302;27;100174;-62
2021/03/11 03:48:28;;;;;;;36.73;23.90;;;5.00;99.90;;;3.21;100.00;99678.66;5029743;27;99874;-63
2021/03/11 03:50:58;;;;;;;35.77;23.13;;;5.00;99.90;;;3.22;100.00;99671.59;5028842;27;101595;-62
2021/03/11 03:53:29;;;;;;;35.90;24.83;;;5.00;99.90;;;3.23;100.00;99670.63;5029067;27;100793;-60
2021/03/11 03:56:00;;;;;;;31.10;21.87;;;5.70;99.90;;;3.22;100.00;99656.56;5029394;27;99924;-61
2021/03/11 03:58:28;;;;;;;34.67;23.50;;;4.90;99.90;;;3.21;100.00;99654.06;5028597;27;100128;-61
2021/03/11 04:00:55;;;;;;;37.53;23.60;;;5.10;99.90;;;3.22;100.00;99655.72;5028531;27;100832;-62
2021/03/11 04:03:22;;;;;;;35.93;24.00;;;4.90;99.90;;;3.16;100.00;99650.94;5028569;27;100189;-62
2021/03/11 04:05:50;;;;;;;34.30;22.07;;;5.30;99.90;;;3.17;100.00;99650.00;5028610;27;100014;-62
2021/03/11 04:08:18;;;;;;;36.63;23.90;;;5.80;99.90;;;3.14;100.00;99647.59;5028848;27;100372;-62
2021/03/11 04:10:45;;;;;;;34.53;24.30;;;6.90;99.90;;;3.09;100.00;99645.31;5028977;27;100758;-62
2021/03/11 04:13:13;;;;;;;37.00;23.90;;;4.90;99.90;;;3.08;100.00;99635.75;5028878;27;100711;-61
2021/03/11 04:15:40;;;;;;;35.60;23.57;;;4.80;99.90;;;3.03;100.00;99637.91;5029087;27;100199;-62
2021/03/11 04:18:07;;;;;;;35.07;25.33;;;4.80;99.90;;;3.01;100.00;99637.19;5029861;27;100181;-62
2021/03/11 04:20:34;;;;;;;31.03;21.27;;;4.70;99.90;;;3.00;100.00;99638.16;5028329;27;101618;-63
2021/03/11 04:23:01;;;;;;;37.90;24.00;;;5.10;99.90;;;2.94;100.00;99629.91;5032057;27;101662;-61
2021/03/11 04:25:28;;;;;;;33.70;24.20;;;4.80;99.90;;;2.87;100.00;99626.91;5032744;27;99954;-63
2021/03/11 04:27:55;;;;;;;36.90;24.83;;;4.60;99.90;;;2.85;100.00;99631.47;5028553;27;100465;-63
2021/03/11 04:30:23;;;;;;;41.97;24.50;;;4.60;99.90;;;2.79;100.00;99624.06;5028459;27;100442;-62
2021/03/11 04:32:50;;;;;;;34.97;23.33;;;4.40;99.90;;;2.73;100.00;99622.75;5027859;27;101335;-61
2021/03/11 04:35:17;;;;;;;39.53;25.73;;;4.50;99.90;;;2.71;100.00;99622.06;5028206;27;99897;-60
2021/03/11 04:37:44;;;;;;;41.53;27.90;;;4.40;99.90;;;2.61;100.00;99612.34;5029413;27;99989;-59
2021/03/11 04:40:12;;;;;;;42.40;27.30;;;5.20;99.90;;;2.56;100.00;99601.31;5028110;27;101367;-58
2021/03/11 04:42:50;;;;;;;39.47;26.13;;;4.30;99.90;;;2.47;100.00;99600.28;5028718;27;100423;-59
2021/03/11 04:45:17;;;;;;;44.00;28.13;;;4.20;99.90;;;2.37;100.00;99581.66;5027913;27;100063;-58
2021/03/11 04:47:45;;;;;;;46.97;28.70;;;4.10;99.90;;;2.37;100.00;99571.09;5028003;27;100175;-59
2021/03/11 04:50:12;;;;;;;43.23;28.97;;;4.10;99.90;;;2.31;100.00;99562.84;5027136;27;100859;-60
2021/03/11 04:52:40;;;;;;;48.63;32.57;;;4.10;99.90;;;2.31;100.00;99554.94;5028178;27;100537;-59
2021/03/11 04:55:07;;;;;;;45.80;29.13;;;4.40;99.90;;;2.23;100.00;99544.13;5028116;27;100179;-59
2021/03/11 04:57:34;;;;;;;55.17;34.30;;;3.90;99.90;;;2.17;100.00;99538.41;5027932;27;100392;-59
2021/03/11 05:00:04;;;;;;;58.40;36.03;;;3.80;99.90;;;2.17;100.00;99534.91;5027251;27;101813;-60
2021/03/11 05:02:34;;;;;;;49.97;32.03;;;3.80;99.90;;;2.26;100.00;99528.06;5027987;27;100614;-59
2021/03/11 05:05:07;;;;;;;62.07;38.47;;;3.80;99.90;;;2.28;100.00;99524.34;5028161;27;100203;-60
2021/03/11 05:07:33;;;;;;;58.47;38.70;;;3.90;99.90;;;2.28;100.00;99520.84;5026980;27;100301;-59
2021/03/11 05:10:00;;;;;;;48.43;29.93;;;3.90;99.90;;;2.19;100.00;99498.69;5027248;27;101505;-59
2021/03/11 05:12:26;;;;;;;47.87;34.37;;;3.80;99.90;;;2.26;100.00;99488.47;5026350;27;100616;-58
2021/03/11 05:14:53;;;;;;;48.27;26.73;;;3.90;99.90;;;2.30;100.00;99479.34;5028108;27;100266;-58
2021/03/11 05:17:20;;;;;;;50.97;33.40;;;3.80;99.90;;;2.21;100.00;99478.28;5027653;27;100235;-59
2021/03/11 05:19:47;;;;;;;42.40;27.87;;;3.90;99.90;;;2.24;100.00;99470.09;5027315;27;100771;-59
2021/03/11 05:22:16;;;;;;;45.47;32.33;;;3.80;99.90;;;2.16;100.00;99470.75;5027255;27;100882;-57
2021/03/11 05:24:42;;;;;;;46.93;31.27;;;3.80;99.90;;;2.08;100.00;99465.25;5028148;27;100135;-59
2021/03/11 05:27:09;;;;;;;43.70;29.30;;;3.80;99.90;;;2.04;100.00;99468.25;5027640;27;100660;-59
2021/03/11 05:29:35;;;;;;;46.40;28.53;;;5.40;99.90;;;2.04;100.00;99460.34;5028010;27;101019;-57
2021/03/11 05:32:02;;;;;;;45.87;30.00;;;3.90;99.90;;;2.00;100.00;99449.19;5027164;27;101064;-58
2021/03/11 05:34:29;;;;;;;47.60;28.87;;;3.80;99.90;;;2.05;100.00;99435.63;5028559;27;100104;-58
2021/03/11 05:36:56;;;;;;;46.07;29.30;;;5.00;99.90;;;2.01;100.00;99432.41;5027629;27;100651;-59
2021/03/11 05:39:22;;;;;;;45.80;29.43;;;4.50;99.90;;;1.97;100.00;99419.59;5026871;27;101076;-58
2021/03/11 05:41:49;;;;;;;42.33;28.87;;;3.70;99.90;;;2.03;100.00;99429.63;5027482;27;100391;-58
2021/03/11 05:44:16;;;;;;;45.97;27.73;;;4.80;99.90;;;2.03;100.00;99421.72;5027790;27;100139;-58
2021/03/11 05:46:43;;;;;;;49.13;31.00;;;3.60;99.90;;;2.04;100.00;99416.31;5025031;27;100128;-58
2021/03/11 05:49:10;;;;;;;41.57;31.10;;;3.80;99.90;;;2.05;100.00;99403.97;5023727;27;101455;-59
2021/03/11 05:51:39;;;;;;;45.07;28.93;;;3.70;99.90;;;2.13;100.00;99389.16;5017373;27;100807;-58
2021/03/11 05:54:09;;;;;;;43.80;28.23;;;3.60;99.90;;;2.13;100.00;99373.34;5024576;27;100297;-58
2021/03/11 05:56:35;;;;;;;44.03;29.30;;;3.60;99.90;;;2.20;100.00;99378.13;5024380;27;100196;-60
2021/03/11 05:59:03;;;;;;;45.40;28.17;;;3.80;99.90;;;2.19;100.00;99379.94;5023657;27;100762;-58
2021/03/11 06:01:32;;;;;;;41.33;27.83;;;3.80;99.90;;;2.22;100.00;99381.47;5007631;27;101916;-59
2021/03/11 06:04:00;;;;;;;43.33;28.83;;;3.80;99.90;;;2.22;100.00;99384.13;5027699;27;100524;-60
2021/03/11 06:06:30;;;;;;;38.90;27.87;;;3.90;99.90;;;2.25;100.00;99363.56;5027445;27;100051;-58
2021/03/11 06:08:59;;;;;;;44.43;28.20;;;4.80;99.90;;;2.20;100.00;99355.22;5027390;27;101059;-57
2021/03/11 06:11:26;;;;;;;39.00;25.33;;;3.70;99.90;;;2.16;100.00;99361.69;5027035;27;100818;-58
2021/03/11 06:13:53;;;;;;;42.70;26.67;;;3.70;99.90;;;2.15;100.00;99349.47;5027604;27;100537;-58
2021/03/11 06:16:24;;;;;;;39.33;25.37;;;3.90;99.90;;;2.16;100.00;99340.59;5029954;27;99967;-58
2021/03/11 06:18:51;;;;;;;43.97;27.53;;;3.70;99.90;;;2.10;100.00;99336.63;5029591;27;101094;-58
2021/03/11 06:21:19;;;;;;;43.07;30.07;;;3.90;99.90;;;2.07;100.00;99334.28;5029299;27;100349;-58
2021/03/11 06:23:45;;;;;;;44.57;26.87;;;3.70;99.90;;;2.04;100.00;99334.53;5030548;27;100350;-58
2021/03/11 06:26:13;;;;;;;44.83;26.47;;;3.60;99.90;;;2.02;100.00;99336.44;5030115;27;100109;-59
2021/03/11 06:28:54;;;;;;;39.83;23.20;;;3.10;99.90;;;2.02;100.00;99331.19;5029520;27;100663;-57
2021/03/11 06:31:24;;;;;;;44.03;27.20;;;3.60;99.90;;;1.97;100.00;99343.94;5029046;27;100378;-60
2021/03/11 06:33:52;;;;;;;42.03;25.53;;;3.50;99.90;;;1.96;100.00;99336.97;5030253;27;100264;-58
2021/03/11 06:36:20;;;;;;;41.07;24.97;;;3.50;99.90;;;1.96;100.00;99336.13;5029559;27;100315;-58
2021/03/11 06:38:47;;;;;;;44.07;29.13;;;3.50;99.90;;;1.93;100.00;99329.31;5029435;27;101056;-58
2021/03/11 06:41:15;;;;;;;42.37;28.23;;;3.80;99.90;;;1.90;100.00;99329.56;5028609;27;100467;-59
2021/03/11 06:43:54;;;;;;;41.47;26.27;;;3.60;99.90;;;1.87;100.00;99316.59;5030294;27;100055;-60
2021/03/11 06:46:22;;;;;;;42.93;27.77;;;3.50;99.90;;;1.86;100.00;99307.03;5029981;27;100356;-58
2021/03/11 06:48:48;;;;;;;45.47;29.27;;;3.50;99.90;;;1.82;100.00;99292.44;5030203;27;101653;-59
2021/03/11 06:51:21;;;;;;;40.77;28.53;;;4.40;99.90;;;1.80;100.00;99279.38;5029033;27;100472;-60
2021/03/11 06:53:56;;;;;;;45.50;31.27;;;4.50;99.90;;;1.78;100.00;99272.53;5030530;27;100220;-59
2021/03/11 06:56:25;;;;;;;44.77;28.40;;;4.70;99.90;;;1.80;100.00;99265.34;5010777;27;100055;-59
2021/03/11 06:59:00;;;;;;;46.73;27.80;;;3.50;99.90;;;1.79;100.00;99266.31;5028911;27;100861;-61
2021/03/11 07:01:27;;;;;;;42.23;28.37;;;3.50;99.90;;;1.73;100.00;99262.34;5028798;27;101175;-58
2021/03/11 07:03:54;;;;;;;45.63;29.37;;;3.50;99.90;;;1.74;100.00;99253.47;5029061;27;100015;-63
2021/03/11 07:06:33;;;;;;;46.23;27.20;;;3.40;99.90;;;1.76;100.00;99270.03;5028948;27;99805;-61
2021/03/11 07:09:02;;;;;;;53.10;31.77;;;3.30;99.90;;;1.77;100.00;99266.44;5028779;27;101285;-61
2021/03/11 07:11:30;;;;;;;42.90;26.03;;;4.50;99.90;;;1.77;100.00;99255.03;5009389;27;101714;-60
2021/03/11 07:13:58;;;;;;;49.13;32.17;;;3.30;99.90;;;1.81;100.00;99272.28;5029594;27;100429;-60
2021/03/11 07:16:27;;;;;;;49.77;30.80;;;3.50;99.90;;;1.83;100.00;99264.25;5029577;27;100033;-62
2021/03/11 07:19:12;;;;;;;49.37;30.50;;;4.10;99.90;;;1.84;100.00;99260.66;5029274;27;100613;-59
2021/03/11 07:21:44;;;;;;;45.70;30.50;;;3.30;99.90;;;1.84;100.00;99250.94;5029815;27;100735;-59
2021/03/11 07:24:13;;;;;;;48.53;30.13;;;3.40;99.90;;;1.80;100.00;99250.34;5029906;27;100158;-60
2021/03/11 07:26:57;;;;;;;48.47;30.53;;;3.90;99.90;;;1.82;100.00;99258.13;5030328;27;100374;-61
2021/03/11 07:29:24;;;;;;;49.70;31.53;;;4.10;99.90;;;1.84;100.00;99237.75;5028479;27;101181;-61
2021/03/11 07:31:54;;;;;;;48.67;30.63;;;3.30;99.90;;;1.84;100.00;99224.56;5028455;27;100979;-60
2021/03/11 07:34:26;;;;;;;53.20;33.43;;;3.40;99.90;;;1.84;100.00;99235.13;5029272;27;99988;-60
2021/03/11 07:36:58;;;;;;;55.80;31.53;;;3.40;99.90;;;1.83;100.00;99228.16;5028762;27;99941;-61
2021/03/11 07:39:27;;;;;;;45.80;29.30;;;3.50;99.90;;;1.84;100.00;99218.44;5028554;27;101594;-60
2021/03/11 07:41:57;;;;;;;54.80;31.87;;;3.30;99.90;;;1.88;100.00;99225.13;5028266;27;100037;-61
2021/03/11 07:44:24;;;;;;;52.33;33.73;;;3.50;99.90;;;1.89;100.00;99210.97;5028738;27;100020;-59
2021/03/11 07:46:51;;;;;;;57.97;36.73;;;3.50;99.90;;;1.91;100.00;99204.59;5009492;27;100122;-61
2021/03/11 07:49:18;;;;;;;56.10;34.70;;;3.60;99.90;;;1.94;100.00;99208.78;5028415;27;100503;-60
2021/03/11 07:51:45;;;;;;;57.10;37.10;;;3.50;99.90;;;1.92;100.00;99208.91;5027769;27;101420;-59
2021/03/11 07:54:12;;;;;;;55.73;33.53;;;3.50;99.90;;;1.97;100.00;99205.91;5028197;27;99871;-59
2021/03/11 07:56:39;;;;;;;54.00;34.33;;;3.50;99.90;;;2.01;100.00;99194.09;5028716;27;100111;-61
2021/03/11 07:59:07;;;;;;;54.63;36.63;;;3.50;99.90;;;2.02;100.00;99190.50;5027283;27;101388;-60
2021/03/11 08:01:45;;;;;;;52.73;34.30;;;3.50;99.90;;;2.03;100.00;99193.00;5027998;27;100886;-59
2021/03/11 08:04:17;;;;;;;54.40;33.50;;;3.50;99.90;;;2.07;100.00;99190.97;5029312;27;100009;-59
2021/03/11 08:06:44;;;;;;;53.77;32.93;;;3.70;99.90;;;2.11;100.00;99198.47;5029080;27;100220;-58
2021/03/11 08:09:10;;;;;;;55.13;35.00;;;3.70;99.90;;;2.12;100.00;99186.09;5028336;27;100998;-58
2021/03/11 08:11:39;;;;;;;57.60;36.43;;;3.50;99.90;;;2.16;100.00;99177.81;5027758;27;100947;-59
2021/03/11 08:14:21;;;;;;;52.33;34.47;;;3.70;99.90;;;2.20;100.00;99180.19;5028506;27;99863;-59
2021/03/11 08:16:48;;;;;;;54.07;32.80;;;3.80;99.90;;;2.21;100.00;99172.13;5027897;27;100200;-60
2021/03/11 08:19:47;;;;;;;50.83;31.50;;;3.80;99.90;;;2.25;100.00;99156.84;5027198;27;101493;-58
2021/03/11 08:22:14;;;;;;;52.57;31.47;;;3.60;99.90;;;2.27;100.00;99152.28;5024307;27;101131;-59
2021/03/11 08:24:45;;;;;;;49.00;30.43;;;4.60;99.90;;;2.30;100.00;99149.38;5033783;27;100169;-59
2021/03/11 08:27:43;;;;;;;46.90;29.00;;;3.90;99.90;;;2.35;100.00;99136.63;5030762;27;99809;-59
2021/03/11 08:30:51;;;;;;;44.33;30.20;;;3.80;99.90;;;2.41;100.00;99126.34;5026197;27;100719;-58
2021/03/11 08:33:54;;;;;;;43.10;29.67;;;3.90;99.90;;;2.49;100.00;99118.59;5027407;27;101447;-60
2021/03/11 08:36:41;;;;;;;44.80;28.53;;;3.90;99.90;;;2.57;100.00;99125.00;5027732;27;99996;-59
2021/03/11 08:39:37;;;;;;;46.07;30.70;;;4.20;99.90;;;2.61;100.00;99129.03;5028143;27;100090;-59
2021/03/11 08:42:46;;;;;;;44.27;28.37;;;4.00;99.90;;;2.65;100.00;99122.50;5027472;27;101196;-60
2021/03/11 08:45:31;;;;;;;40.63;26.40;;;4.00;99.90;;;2.70;100.00;99134.34;5027052;27;100424;-61
2021/03/11 08:48:16;;;;;;;41.53;27.50;;;4.10;99.90;;;2.73;100.00;99141.16;5016700;27;100010;-59
2021/03/11 08:50:44;;;;;;;42.40;27.77;;;4.10;99.90;;;2.75;100.00;99136.56;5028171;27;99913;-60
2021/03/11 08:53:11;;;;;;;39.80;27.20;;;4.30;99.90;;;2.75;100.00;99134.75;5027575;27;101247;-60
2021/03/11 08:55:39;;;;;;;38.10;26.47;;;4.50;99.90;;;2.76;100.00;99117.09;5027368;27;100432;-61
2021/03/11 08:58:24;;;;;;;37.83;27.03;;;4.40;99.90;;;2.81;100.00;99112.25;5027461;27;100059;-60
2021/03/11 09:00:56;;;;;;;42.40;27.03;;;4.30;99.90;;;2.80;100.00;99123.78;5028105;27;100151;-59
2021/03/11 09:03:46;;;;;;;39.80;27.47;;;4.30;99.90;;;2.81;100.00;99114.91;5027499;27;100977;-61
2021/03/11 09:06:14;;;;;;;37.03;22.83;;;4.40;99.90;;;2.81;100.00;99114.91;5027411;27;100360;-60
2021/03/11 09:08:50;;;;;;;36.37;25.37;;;5.10;99.90;;;2.82;100.00;99103.38;5027746;27;99938;-60
2021/03/11 09:11:21;;;;;;;31.40;22.33;;;4.50;99.90;;;2.84;100.00;99102.22;5027304;27;100123;-60
2021/03/11 09:13:49;;;;;;;38.17;26.17;;;4.40;99.90;;;2.89;100.00;99107.09;5027284;27;100379;-60
2021/03/11 09:16:16;;;;;;;34.10;23.13;;;5.30;99.90;;;2.92;100.00;99093.63;5026602;27;101198;-59
2021/03/11 09:18:44;;;;;;;36.53;26.23;;;4.60;99.90;;;2.97;100.00;99106.44;5027803;27;100519;-60
2021/03/11 09:21:10;;;;;;;38.13;26.30;;;4.60;99.90;;;3.04;100.00;99104.91;5026990;27;100157;-61
2021/03/11 09:23:42;;;;;;;41.63;27.27;;;5.00;99.90;;;3.04;100.00;99097.81;5026809;27;100878;-61
2021/03/11 09:26:24;;;;;;;34.27;22.57;;;4.80;99.90;;;3.10;100.00;99091.09;5026517;27;100828;-61
2021/03/11 09:28:51;;;;;;;36.90;24.77;;;4.70;99.90;;;3.12;100.00;99082.06;5027657;27;99982;-61
2021/03/11 09:31:23;;;;;;;36.73;26.10;;;4.70;99.90;;;3.12;100.00;99074.13;5027583;27;100015;-60
2021/03/11 09:33:50;;;;;;;38.97;25.87;;;5.90;99.90;;;3.20;100.00;99071.66;5029411;27;100933;-60
2021/03/11 09:36:20;;;;;;;35.40;24.23;;;4.70;99.90;;;3.24;100.00;99069.53;5029861;27;101290;-60
2021/03/11 09:38:46;;;;;;;35.77;24.60;;;5.00;99.90;;;3.36;100.00;99064.91;5031051;27;99896;-60
2021/03/11 09:41:13;;;;;;;32.63;23.70;;;5.60;99.90;;;3.36;100.00;99064.91;5031264;27;100338;-60
2021/03/11 09:43:41;;;;;;;34.33;24.43;;;5.00;99.90;;;3.40;100.00;99056.56;5029999;27;101489;-60
2021/03/11 09:46:10;;;;;;;36.77;26.83;;;5.20;99.90;;;3.49;100.00;99050.41;5028363;27;101232;-58
2021/03/11 09:48:41;;;;;;;35.47;24.37;;;5.60;99.90;;;3.61;100.00;99048.44;5030825;27;99986;-61
2021/03/11 09:51:11;;;;;;;36.17;26.53;;;6.00;99.90;;;3.64;100.00;99052.59;5031382;27;100105;-60
2021/03/11 09:53:41;;;;;;;37.33;25.83;;;5.10;99.90;;;3.66;100.00;99050.66;5030291;27;101652;-59
2021/03/11 09:56:12;;;;;;;35.13;24.67;;;5.30;99.90;;;3.69;100.00;99053.03;5030684;27;100813;-60
2021/03/11 09:58:49;;;;;;;35.33;24.20;;;5.10;99.90;;;3.71;100.00;99051.88;5030232;27;100023;-59
2021/03/11 10:01:27;;;;;;;38.83;28.17;;;5.50;99.90;;;3.76;100.00;99051.44;5030449;27;100027;-59
2021/03/11 10:03:54;;;;;;;37.27;24.30;;;5.20;99.90;;;3.76;100.00;99043.53;5030235;27;101637;-58
2021/03/11 10:06:24;;;;;;;38.33;25.20;;;5.30;99.90;;;3.83;100.00;99034.84;5029867;27;100749;-58
2021/03/11 10:08:55;;;;;;;33.37;23.43;;;5.30;99.90;;;3.91;100.00;99031.47;5030921;27;100271;-58
2021/03/11 10:11:26;;;;;;;38.30;25.97;;;5.40;99.90;;;3.93;100.00;99019.78;5030162;27;100156;-60
2021/03/11 10:13:54;;;;;;;35.63;24.67;;;5.30;99.90;;;4.03;100.00;99014.44;5030065;27;100618;-58
2021/03/11 10:16:41;;;;;;;35.20;24.57;;;5.40;99.90;;;4.12;100.00;99018.00;5029580;27;100566;-59
2021/03/11 10:19:15;;;;;;;33.43;23.63;;;5.40;99.90;;;4.20;100.00;99020.75;5028029;27;100146;-60